Time;durP1;ratioP1;P1;durP2;ratioP2;P2;SDS_P1;SDS_P2;PMS_P1;PMS_P2;Temp;Humidity;BMP_temperature;BMP_pressure;BME280_temperature;BME280_humidity;BME280_pressure;Samples;Min_cycle;Max_cycle;Signal;HPM_P1;HPM_P2
2023/10/17 00:01:34;;;;;;;21.15;9.55;;;;;;;6.54;100.00;101914.00;5111553;28;20031;-70
2023/10/17 00:04:26;;;;;;;21.05;9.27;;;;;;;6.51;100.00;101919.13;5116059;28;20042;-70
2023/10/17 00:06:50;;;;;;;20.70;9.40;;;;;;;6.46;100.00;101918.97;5115400;28;20043;-70
2023/10/17 00:09:22;;;;;;;20.30;9.38;;;;;;;6.42;100.00;101915.34;5115811;28;20470;-76
2023/10/17 00:14:23;;;;;;;21.10;9.55;;;;;;;6.38;100.00;101912.53;5115878;28;20039;-75
2023/10/17 00:16:50;;;;;;;19.58;9.27;;;;;;;6.39;100.00;101909.06;5115711;28;20416;-75
2023/10/17 00:19:16;;;;;;;21.55;9.18;;;;;;;6.40;100.00;101911.75;5115663;28;20027;-74
2023/10/17 00:21:42;;;;;;;21.23;9.48;;;;;;;6.40;100.00;101908.22;5115370;28;20027;-72
2023/10/17 00:24:09;;;;;;;22.20;9.65;;;;;;;6.38;100.00;101902.03;5115573;28;20389;-76
2023/10/17 00:26:39;;;;;;;20.15;9.55;;;;;;;6.35;100.00;101897.56;5115217;28;20101;-76
2023/10/17 00:29:05;;;;;;;20.35;9.90;;;;;;;6.38;100.00;101895.03;5115230;28;20027;-72
2023/10/17 00:31:36;;;;;;;21.58;9.98;;;;;;;6.40;100.00;101897.72;5115185;28;20024;-73
2023/10/17 00:34:07;;;;;;;22.17;9.73;;;;;;;6.36;100.00;101896.69;5115303;28;20024;-71
2023/10/17 00:36:33;;;;;;;21.67;9.60;;;;;;;6.33;100.00;101893.06;5115126;28;20023;-73
2023/10/17 00:39:08;;;;;;;21.25;10.30;;;;;;;6.31;100.00;101894.75;5114372;28;20486;-72
2023/10/17 00:44:30;;;;;;;22.73;10.68;;;;;;;6.30;100.00;101882.44;5100869;28;20416;-72
2023/10/17 00:46:55;;;;;;;21.92;10.90;;;;;;;6.32;100.00;101881.69;5111204;28;20349;-72
2023/10/17 00:49:23;;;;;;;23.38;11.00;;;;;;;6.33;100.00;101882.56;5114773;28;20118;-72
2023/10/17 00:51:48;;;;;;;22.98;10.88;;;;;;;6.36;100.00;101890.56;5113424;28;20115;-71
2023/10/17 00:54:14;;;;;;;24.05;11.55;;;;;;;6.37;100.00;101889.72;5115014;28;20449;-70
2023/10/17 00:56:43;;;;;;;22.92;11.60;;;;;;;6.40;100.00;101893.34;5114631;28;20027;-72
2023/10/17 00:59:09;;;;;;;22.40;10.80;;;;;;;6.42;100.00;101890.78;5114651;28;20023;-71
2023/10/17 01:01:34;;;;;;;23.45;11.30;;;;;;;6.43;100.00;101885.59;5114790;28;20484;-71
2023/10/17 01:04:01;;;;;;;23.90;10.75;;;;;;;6.49;100.00;101884.03;5114589;28;20030;-71
2023/10/17 01:08:54;;;;;;;22.95;10.95;;;;;;;6.47;100.00;101891.88;5110420;28;20120;-75
2023/10/17 01:11:20;;;;;;;21.65;10.15;;;;;;;6.47;100.00;101893.59;5114400;28;20490;-72
2023/10/17 01:13:53;;;;;;;23.38;11.00;;;;;;;6.51;100.00;101892.84;5114371;27;20459;-71
2023/10/17 01:16:19;;;;;;;;;;;;;;;6.52;100.00;101898.16;5114982;28;20035;-70
2023/10/17 01:18:45;;;;;;;21.88;10.30;;;;;;;6.50;100.00;101897.22;5114355;28;19964;-72
2023/10/17 01:21:21;;;;;;;21.75;10.30;;;;;;;6.45;100.00;101897.06;5114049;28;20049;-75
2023/10/17 01:23:48;;;;;;;21.20;9.95;;;;;;;6.43;100.00;101888.22;5114299;28;20038;-76
2023/10/17 01:26:14;;;;;;;22.48;10.35;;;;;;;6.41;100.00;101886.38;5113205;28;20405;-70
2023/10/17 01:28:47;;;;;;;20.95;10.05;;;;;;;6.37;100.00;101881.84;5112698;28;20036;-70
2023/10/17 01:31:22;;;;;;;21.98;10.57;;;;;;;6.35;100.00;101879.16;5114005;28;20036;-70
2023/10/17 01:33:50;;;;;;;21.92;10.55;;;;;;;6.31;100.00;101871.13;5112778;28;20038;-70
2023/10/17 01:36:16;;;;;;;21.65;10.38;;;;;;;6.26;100.00;101877.09;5114186;28;20119;-72
2023/10/17 01:38:42;;;;;;;21.48;10.65;;;;;;;6.26;100.00;101879.72;5113830;28;20028;-70
2023/10/17 01:41:10;;;;;;;21.75;10.32;;;;;;;6.24;100.00;101885.72;5114029;28;20067;-70
2023/10/17 01:43:40;;;;;;;22.90;11.23;;;;;;;6.21;100.00;101881.25;5114097;28;20031;-71
2023/10/17 01:46:11;;;;;;;22.45;10.82;;;;;;;6.19;100.00;101880.31;5113686;28;20030;-70
2023/10/17 01:48:37;;;;;;;22.38;10.93;;;;;;;6.19;100.00;101885.56;5113597;28;20078;-70
2023/10/17 01:51:07;;;;;;;22.13;10.60;;;;;;;6.16;100.00;101880.19;5113140;28;20028;-71
2023/10/17 01:53:38;;;;;;;23.45;11.20;;;;;;;6.15;100.00;101867.00;5112310;28;20058;-70
2023/10/17 01:56:13;;;;;;;21.60;11.35;;;;;;;6.11;100.00;101856.34;5113742;28;20034;-70
2023/10/17 01:58:50;;;;;;;22.40;11.13;;;;;;;6.08;100.00;101850.09;5113672;28;20424;-70
2023/10/17 02:01:29;;;;;;;22.63;11.32;;;;;;;6.08;100.00;101855.34;5113766;28;20019;-70
2023/10/17 02:04:18;;;;;;;22.30;11.45;;;;;;;6.04;100.00;101854.34;5109462;28;20034;-70
2023/10/17 02:06:44;;;;;;;24.33;12.05;;;;;;;6.03;100.00;101846.41;5112061;28;20466;-70
2023/10/17 02:09:24;;;;;;;22.45;11.45;;;;;;;6.02;100.00;101831.50;5113340;28;20035;-69
2023/10/17 02:11:54;;;;;;;23.38;11.55;;;;;;;6.00;100.00;101841.94;5113291;28;20032;-69
2023/10/17 02:14:20;;;;;;;23.48;11.90;;;;;;;5.98;100.00;101842.72;5113365;28;20055;-70
2023/10/17 02:16:46;;;;;;;22.95;12.02;;;;;;;5.97;100.00;101840.88;5113854;28;20059;-70
2023/10/17 02:19:11;;;;;;;23.30;11.65;;;;;;;5.97;100.00;101833.00;5113182;28;20106;-70
2023/10/17 02:21:39;;;;;;;23.48;11.88;;;;;;;5.98;100.00;101830.47;5112051;28;20074;-70
2023/10/17 02:24:08;;;;;;;22.63;11.93;;;;;;;6.00;100.00;101817.41;5113251;28;20466;-71
2023/10/17 02:26:43;;;;;;;22.83;11.95;;;;;;;5.97;100.00;101814.63;5113349;28;20081;-69
2023/10/17 02:29:12;;;;;;;23.48;12.07;;;;;;;6.02;100.00;101826.25;5113257;28;20062;-70
2023/10/17 02:31:40;;;;;;;23.02;12.02;;;;;;;6.00;100.00;101825.28;5113084;28;20417;-70
2023/10/17 02:34:09;;;;;;;23.25;11.60;;;;;;;5.99;100.00;101834.91;5113071;28;20051;-74
2023/10/17 02:36:34;;;;;;;22.98;11.98;;;;;;;5.97;100.00;101831.34;5112953;28;20112;-74
2023/10/17 02:39:00;;;;;;;23.95;12.05;;;;;;;5.97;100.00;101833.97;5112945;28;20027;-72
2023/10/17 02:41:25;;;;;;;22.58;12.15;;;;;;;5.98;100.00;101835.72;5113641;28;20050;-71
2023/10/17 02:43:54;;;;;;;23.20;12.30;;;;;;;5.96;100.00;101832.13;5111742;28;20059;-73
2023/10/17 02:46:21;;;;;;;22.35;11.65;;;;;;;5.94;100.00;101834.69;5112872;28;20062;-73
2023/10/17 02:48:47;;;;;;;22.90;12.38;;;;;;;5.92;100.00;101828.47;5111686;28;20078;-73
2023/10/17 02:53:57;;;;;;;21.98;11.70;;;;;;;5.92;100.00;101832.84;5113185;28;20043;-72
2023/10/17 02:56:23;;;;;;;23.05;12.60;;;;;;;5.89;100.00;101833.59;5111801;28;20114;-72
2023/10/17 02:59:23;;;;;;;23.00;12.57;;;;;;;5.86;100.00;101830.84;5112957;28;20038;-73
2023/10/17 03:01:52;;;;;;;23.67;12.98;;;;;;;5.83;100.00;101828.13;5112218;28;20027;-74
2023/10/17 03:04:18;;;;;;;23.77;13.20;;;;;;;5.82;100.00;101831.56;5117156;28;20026;-73
2023/10/17 03:06:44;;;;;;;24.63;13.13;;;;;;;5.79;100.00;101827.94;5116929;28;20024;-72
2023/10/17 03:14:25;;;;;;;24.85;13.68;;;;;;;5.80;100.00;101817.50;5116837;28;20135;-70
2023/10/17 03:16:54;;;;;;;23.85;13.85;;;;;;;5.80;100.00;101824.50;5116623;28;20023;-70
2023/10/17 03:19:27;;;;;;;26.10;14.70;;;;;;;5.75;100.00;101830.44;5116586;28;20016;-70
2023/10/17 03:21:54;;;;;;;25.15;14.05;;;;;;;5.75;100.00;101832.16;5116745;27;20398;-70
2023/10/17 03:24:28;;;;;;;25.50;14.48;;;;;;;5.74;100.00;101830.38;5116510;28;20015;-70
2023/10/17 03:26:55;;;;;;;24.98;14.20;;;;;;;5.73;100.00;101825.97;5116428;28;20030;-70
2023/10/17 03:29:23;;;;;;;25.40;14.70;;;;;;;5.73;100.00;101823.34;5115287;28;20032;-70
2023/10/17 03:31:58;;;;;;;25.55;14.52;;;;;;;5.76;100.00;101826.09;5116633;28;20027;-70
2023/10/17 03:34:34;;;;;;;26.08;14.55;;;;;;;5.74;100.00;101838.25;5116291;28;20034;-70
2023/10/17 03:37:26;;;;;;;26.10;15.60;;;;;;;5.73;100.00;101837.34;5112807;28;20028;-70
2023/10/17 03:40:03;;;;;;;26.80;15.52;;;;;;;5.72;100.00;101832.94;5115102;28;20079;-70
2023/10/17 03:44:56;;;;;;;26.25;15.65;;;;;;;5.75;100.00;101842.66;5112303;28;20039;-71
2023/10/17 03:47:22;;;;;;;26.05;16.55;;;;;;;5.74;100.00;101839.16;5116250;28;20030;-70
2023/10/17 03:49:48;;;;;;;26.83;16.75;;;;;;;5.72;100.00;101837.28;5114790;28;20058;-70
2023/10/17 03:52:16;;;;;;;27.25;16.48;;;;;;;5.72;100.00;101835.56;5116366;28;20051;-70
2023/10/17 03:54:44;;;;;;;27.15;16.48;;;;;;;5.74;100.00;101839.16;5116250;28;20019;-70
2023/10/17 03:57:15;;;;;;;27.15;16.45;;;;;;;5.73;100.00;101842.59;5115868;28;20479;-70
2023/10/17 03:59:41;;;;;;;28.05;16.92;;;;;;;5.70;100.00;101845.09;5115769;28;20020;-70
2023/10/17 04:02:21;;;;;;;27.30;17.15;;;;;;;5.70;100.00;101844.22;5115029;28;20039;-70
2023/10/17 04:04:53;;;;;;;27.63;17.77;;;;;;;5.72;100.00;101855.66;5114567;28;20027;-71
2023/10/17 04:07:21;;;;;;;28.38;17.92;;;;;;;5.71;100.00;101848.63;5115716;28;20019;-70
2023/10/17 04:09:52;;;;;;;27.98;17.38;;;;;;;5.74;100.00;101847.00;5115546;28;20114;-70
2023/10/17 04:12:25;;;;;;;28.27;18.45;;;;;;;5.70;100.00;101846.84;5114413;28;20027;-70
2023/10/17 04:14:58;;;;;;;28.13;18.27;;;;;;;5.69;100.00;101840.66;5114960;28;20036;-70
2023/10/17 04:17:29;;;;;;;27.90;16.92;;;;;;;5.70;100.00;101844.22;5115447;28;20069;-71
2023/10/17 04:19:58;;;;;;;26.88;17.63;;;;;;;5.68;100.00;101846.78;5115443;28;20031;-70
2023/10/17 04:22:30;;;;;;;27.83;17.48;;;;;;;5.68;100.00;101843.22;5115694;28;20036;-70
2023/10/17 04:25:00;;;;;;;29.13;17.80;;;;;;;5.67;100.00;101842.34;5111575;28;20116;-70
2023/10/17 04:27:31;;;;;;;28.27;18.08;;;;;;;5.65;100.00;101843.13;5115222;28;20028;-69
2023/10/17 04:29:57;;;;;;;28.88;18.02;;;;;;;5.67;100.00;101836.22;5111057;28;20547;-70
2023/10/17 04:32:27;;;;;;;28.95;18.15;;;;;;;5.67;100.00;101841.47;5115297;28;20035;-70
2023/10/17 04:34:53;;;;;;;29.08;18.35;;;;;;;5.66;100.00;101843.19;5113936;28;20023;-70
2023/10/17 04:37:24;;;;;;;31.63;18.25;;;;;;;5.68;100.00;101848.47;5115162;28;20058;-70
2023/10/17 04:39:57;;;;;;;28.88;18.70;;;;;;;5.67;100.00;101844.09;5113925;28;20059;-70
2023/10/17 04:42:47;;;;;;;28.60;18.40;;;;;;;5.67;100.00;101841.47;5115489;28;20034;-71
2023/10/17 04:45:28;;;;;;;28.42;18.83;;;;;;;5.68;100.00;101853.72;5113404;28;20039;-71
2023/10/17 04:48:10;;;;;;;29.35;18.67;;;;;;;5.64;100.00;101850.09;5115183;28;20489;-70
2023/10/17 04:50:55;;;;;;;29.40;18.60;;;;;;;5.66;100.00;101844.91;5112426;28;20116;-71
2023/10/17 04:53:28;;;;;;;28.98;19.17;;;;;;;5.65;100.00;101837.88;5114943;28;20505;-73
2023/10/17 04:56:11;;;;;;;28.83;18.25;;;;;;;5.66;100.00;101835.31;5114703;28;20028;-73
2023/10/17 04:58:42;;;;;;;29.00;19.17;;;;;;;5.63;100.00;101837.81;5113467;28;20118;-72
2023/10/17 05:03:43;;;;;;;29.60;19.40;;;;;;;5.62;100.00;101840.38;5114899;28;20036;-71
2023/10/17 05:09:00;;;;;;;30.42;19.30;;;;;;;5.58;100.00;101835.00;5114580;28;20132;-73
2023/10/17 06:17:22;;;;;;;33.58;23.67;;;;;;;5.59;100.00;101821.06;5110861;28;20077;-69
2023/10/17 06:19:48;;;;;;;33.97;23.52;;;;;;;5.61;100.00;101814.97;5111659;28;20034;-68
2023/10/17 06:26:04;;;;;;;36.63;23.23;;;;;;;5.64;100.00;101822.97;5112111;28;20445;-66
2023/10/17 06:30:34;;;;;;;34.00;23.92;;;;;;;5.65;100.00;101827.38;5109851;28;20127;-69
2023/10/17 06:35:31;;;;;;;32.03;22.17;;;;;;;5.69;100.00;101826.66;5112167;28;20386;-76
2023/10/17 06:37:57;;;;;;;33.10;23.38;;;;;;;5.72;100.00;101829.41;5111858;28;20084;-77
2023/10/17 06:40:30;;;;;;;32.85;23.23;;;;;;;5.73;100.00;101837.34;5112932;28;20043;-75
2023/10/17 06:42:59;;;;;;;32.75;23.40;;;;;;;5.75;100.00;101832.16;5107852;28;20492;-72
2023/10/17 06:45:24;;;;;;;34.53;22.83;;;;;;;5.77;100.00;101830.50;5112914;28;20065;-75
2023/10/17 06:47:50;;;;;;;33.17;23.65;;;;;;;5.80;100.00;101830.63;5112961;28;20040;-75
2023/10/17 06:55:21;;;;;;;32.85;22.65;;;;;;;5.90;100.00;101848.53;5109273;28;20031;-72
2023/10/17 06:57:55;;;;;;;34.25;22.60;;;;;;;5.92;100.00;101844.22;5115131;28;20386;-72
2023/10/17 07:02:49;;;;;;;31.65;21.38;;;;;;;5.98;100.00;101843.59;5114678;28;20044;-73
2023/10/17 07:05:14;;;;;;;31.88;21.67;;;;;;;5.99;100.00;101849.75;5112985;28;20081;-72
2023/10/17 07:07:41;;;;;;;31.30;21.15;;;;;;;6.03;100.00;101844.69;5112212;28;20027;-73
2023/10/17 07:10:16;;;;;;;33.13;22.15;;;;;;;6.07;100.00;101843.97;5111980;28;20036;-76
2023/10/17 07:12:47;;;;;;;31.85;21.65;;;;;;;6.09;100.00;101838.78;5108903;28;20058;-74
2023/10/17 07:15:18;;;;;;;31.25;20.23;;;;;;;6.12;100.00;101831.03;5108450;28;20020;-74
2023/10/17 07:18:39;;;;;;;31.77;21.75;;;;;;;6.14;100.00;101829.34;5108437;28;20397;-73
2023/10/17 07:23:19;;;;;;;30.85;19.77;;;;;;;6.24;100.00;101833.22;5112533;28;20043;-75
2023/10/17 07:25:49;;;;;;;30.60;19.35;;;;;;;6.26;100.00;101828.91;5112335;28;20036;-73
2023/10/17 07:28:15;;;;;;;29.20;19.77;;;;;;;6.34;100.00;101823.97;5112302;28;20023;-74
2023/10/17 07:30:49;;;;;;;29.63;19.92;;;;;;;6.39;100.00;101825.00;5111846;28;20080;-73
2023/10/17 07:33:17;;;;;;;29.33;19.65;;;;;;;6.50;100.00;101828.94;5111005;28;20043;-73
2023/10/17 07:35:43;;;;;;;28.83;18.77;;;;;;;6.56;100.00;101831.78;5111372;28;20031;-73
2023/10/17 07:38:09;;;;;;;29.40;18.73;;;;;;;6.60;100.00;101844.19;5112230;28;20051;-73
2023/10/17 07:43:09;;;;;;;26.45;17.08;;;;;;;6.71;100.00;101833.16;5112616;28;20119;-73
2023/10/17 07:45:41;;;;;;;28.70;17.92;;;;;;;6.78;100.00;101835.19;5112353;28;20028;-72
2023/10/17 07:48:26;;;;;;;27.13;17.52;;;;;;;6.90;100.00;101840.88;5112766;28;20020;-73
2023/10/17 07:50:57;;;;;;;27.80;17.55;;;;;;;6.97;100.00;101827.13;5115986;28;20032;-73
2023/10/17 07:53:23;;;;;;;27.42;17.48;;;;;;;6.93;100.00;101824.31;5116076;28;20067;-73
2023/10/17 07:55:52;;;;;;;26.50;16.50;;;;;;;6.90;100.00;101830.38;5116011;28;20080;-72
2023/10/17 07:58:35;;;;;;;26.67;16.83;;;;;;;6.79;100.00;101832.59;5115918;28;20024;-74
2023/10/17 08:01:03;;;;;;;28.08;17.00;;;;;;;6.71;100.00;101822.66;5113038;28;20028;-72
2023/10/17 08:03:28;;;;;;;26.38;16.85;;;;;;;6.71;100.00;101820.03;5115885;28;20457;-72
2023/10/17 08:08:35;;;;;;;28.02;16.85;;;;;;;6.92;100.00;101812.91;5112147;28;20036;-76
2023/10/17 08:11:05;;;;;;;26.58;16.60;;;;;;;7.23;100.00;101826.22;5115626;28;20036;-73
2023/10/17 08:13:32;;;;;;;26.25;15.77;;;;;;;7.58;100.00;101824.72;5115782;28;20026;-73
2023/10/17 08:16:10;;;;;;;25.27;14.95;;;;;;;7.94;100.00;101813.59;5115769;28;20027;-72
2023/10/17 08:18:42;;;;;;;25.13;14.88;;;;;;;8.37;100.00;101812.22;5113110;28;20044;-73
2023/10/17 08:21:48;;;;;;;23.95;13.60;;;;;;;8.70;100.00;101799.97;5114429;28;20072;-72
2023/10/17 08:24:00;;;;;;;22.53;12.80;;;;;;;9.04;100.00;101801.78;5110853;28;20043;-73
2023/10/17 08:26:29;;;;;;;24.13;12.77;;;;;;;9.26;100.00;101797.00;5115327;28;20062;-73
2023/10/17 08:28:56;;;;;;;22.00;11.90;;;;;;;9.47;100.00;101798.44;5111622;28;20031;-73
2023/10/17 08:31:44;;;;;;;22.77;11.88;;;;;;;9.67;100.00;101798.88;5115150;28;20036;-76
2023/10/17 08:34:12;;;;;;;22.08;11.55;;;;;;;9.94;100.00;101795.97;5113438;28;20462;-72
2023/10/17 08:41:57;;;;;;;22.00;10.75;;;;;;;10.59;100.00;101786.78;5111751;28;20044;-77
2023/10/17 08:44:28;;;;;;;21.02;9.57;;;;;;;10.69;100.00;101772.88;5113955;28;20027;-75
2023/10/17 08:46:55;;;;;;;21.13;9.40;;;;;;;10.88;100.00;101774.09;5110861;28;20063;-74
2023/10/17 08:49:21;;;;;;;20.20;9.00;;;;;;;10.97;100.00;101776.00;5114749;28;20059;-76
2023/10/17 08:51:50;;;;;;;20.90;9.10;;;;;;;11.22;100.00;101787.00;5115049;28;20467;-75
2023/10/17 08:54:19;;;;;;;21.33;9.90;;;;;;;11.39;100.00;101776.69;5114947;27;20031;-74
2023/10/17 08:56:47;;;;;;;20.58;9.27;;;;;;;11.65;100.00;101777.13;5114786;28;20039;-74
2023/10/17 08:59:13;;;;;;;21.65;8.90;;;;;;;11.78;100.00;101788.75;5114669;28;20034;-77
2023/10/17 09:01:59;;;;;;;20.38;9.10;;;;;;;12.15;100.00;101789.31;5114694;28;20028;-77
2023/10/17 09:04:31;;;;;;;20.52;8.93;;;;;;;12.39;100.00;101794.00;5109414;28;20046;-74
2023/10/17 09:07:08;;;;;;;19.40;7.82;;;;;;;12.68;100.00;101790.78;5110900;28;20484;-76
2023/10/17 09:09:34;;;;;;;19.27;7.50;;;;;;;12.52;100.00;101780.03;5111619;28;20059;-74
2023/10/17 09:12:01;;;;;;;19.33;7.65;;;;;;;12.54;100.00;101790.66;5112868;28;20027;-75
2023/10/17 09:14:29;;;;;;;19.50;8.18;;;;;;;12.87;100.00;101775.94;5114149;28;20063;-75
2023/10/17 09:17:21;;;;;;;19.17;7.45;;;;;;;13.38;100.00;101781.72;5114301;28;20019;-74
2023/10/17 09:19:47;;;;;;;18.50;7.53;;;;;;;13.42;100.00;101764.94;5112043;28;20424;-72
2023/10/17 09:22:17;;;;;;;18.67;7.25;;;;;;;13.43;100.00;101777.34;5114370;28;20028;-72
2023/10/17 09:24:49;;;;;;;20.05;7.60;;;;;;;13.25;100.00;101783.34;5114510;28;20381;-72
2023/10/17 09:27:15;;;;;;;;;;;;;;;13.78;100.00;101782.00;5114664;28;20016;-73
2023/10/17 09:29:51;;;;;;;19.90;7.70;;;;;;;13.84;100.00;101779.38;5114057;28;19923;-74
2023/10/17 09:32:35;;;;;;;19.98;7.57;;;;;;;14.42;100.00;101785.84;5114204;28;20089;-72
2023/10/17 09:35:11;;;;;;;18.23;6.70;;;;;;;14.86;100.00;101774.44;5114474;28;20076;-74
2023/10/17 09:37:46;;;;;;;19.67;7.00;;;;;;;15.29;100.00;101782.47;5110772;28;20081;-73
2023/10/17 09:40:14;;;;;;;18.05;6.82;;;;;;;15.40;100.00;101776.25;5113607;28;20054;-73
2023/10/17 09:42:47;;;;;;;18.25;6.78;;;;;;;15.81;100.00;101788.63;5113965;27;20031;-73
2023/10/17 09:45:14;;;;;;;18.50;6.10;;;;;;;15.54;100.00;101790.44;5113740;28;20036;-74
2023/10/17 09:47:45;;;;;;;16.52;6.30;;;;;;;16.10;100.00;101779.66;5113977;28;20055;-74
2023/10/17 09:50:19;;;;;;;17.83;6.60;;;;;;;15.93;100.00;101774.38;5113695;28;20096;-75
2023/10/17 09:52:48;;;;;;;17.50;6.70;;;;;;;16.13;100.00;101782.31;5113671;28;20073;-74
2023/10/17 09:55:17;;;;;;;17.38;6.40;;;;;;;16.74;100.00;101790.00;5113983;28;20023;-73
2023/10/17 09:57:50;;;;;;;18.27;6.20;;;;;;;17.35;100.00;101787.81;5113554;28;20066;-73
2023/10/17 10:00:34;;;;;;;17.05;5.97;;;;;;;17.92;100.00;101794.41;5113572;28;20024;-73
2023/10/17 10:03:00;;;;;;;17.58;5.78;;;;;;;18.06;100.00;101787.09;5113449;28;20031;-73
2023/10/17 10:05:29;;;;;;;16.67;5.80;;;;;;;17.93;100.00;101791.72;5113459;28;20462;-73
2023/10/17 10:08:02;;;;;;;15.23;5.50;;;;;;;17.92;100.00;101794.41;5112436;28;20034;-74
2023/10/17 10:10:46;;;;;;;17.05;5.30;;;;;;;17.92;100.00;101794.41;5111559;28;20372;-73
2023/10/17 10:13:14;;;;;;;15.50;5.05;;;;;;;17.95;93.87;101797.03;5110485;28;20024;-73
2023/10/17 10:16:02;;;;;;;17.88;5.20;;;;;;;18.01;100.00;101794.28;5113307;28;20024;-74
2023/10/17 10:18:43;;;;;;;15.02;5.53;;;;;;;18.12;91.51;101791.50;5113284;28;20176;-73
2023/10/17 10:21:08;;;;;;;15.80;5.15;;;;;;;17.89;84.52;101783.72;5109948;28;20035;-73
2023/10/17 10:23:35;;;;;;;16.35;5.18;;;;;;;18.20;89.62;101778.03;5112232;28;20035;-73
2023/10/17 10:26:19;;;;;;;15.80;5.20;;;;;;;18.53;88.00;101783.84;5112881;28;20030;-73
2023/10/17 10:28:46;;;;;;;15.02;5.00;;;;;;;18.93;82.57;101770.78;5111123;28;20084;-73
2023/10/17 10:31:21;;;;;;;14.52;4.97;;;;;;;18.90;77.52;101764.56;5112891;28;20059;-74
2023/10/17 10:33:48;;;;;;;15.52;4.97;;;;;;;18.91;72.36;101764.53;5112980;28;20026;-74
2023/10/17 10:36:16;;;;;;;16.10;4.65;;;;;;;19.18;71.70;101770.38;5113349;28;20019;-73
2023/10/17 10:38:41;;;;;;;15.40;5.25;;;;;;;19.31;70.46;101769.25;5112939;28;20034;-74
2023/10/17 10:41:07;;;;;;;14.13;4.88;;;;;;;19.61;73.83;101766.03;5112921;28;20491;-74
2023/10/17 10:43:33;;;;;;;14.25;4.40;;;;;;;19.08;62.43;101744.66;5112974;28;20047;-73
2023/10/17 10:46:00;;;;;;;13.32;4.65;;;;;;;18.93;63.24;101756.47;5112816;28;20055;-74
2023/10/17 10:48:26;;;;;;;16.48;4.93;;;;;;;19.56;66.54;101749.16;5113078;28;20081;-73
2023/10/17 10:50:55;;;;;;;13.95;4.40;;;;;;;19.99;59.73;101746.56;5111668;28;20028;-74
2023/10/17 10:53:28;;;;;;;13.75;4.50;;;;;;;20.50;58.98;101750.81;5111524;28;20048;-74
2023/10/17 10:56:02;;;;;;;16.45;5.03;;;;;;;20.33;60.41;101739.56;5112736;28;20024;-75
2023/10/17 10:58:35;;;;;;;16.30;4.88;;;;;;;20.30;59.28;101728.88;5112615;28;20035;-74
2023/10/17 11:01:02;;;;;;;14.27;4.95;;;;;;;20.03;61.47;101733.94;5112911;28;20023;-76
2023/10/17 11:03:31;;;;;;;15.02;5.05;;;;;;;20.04;63.02;101730.34;5113169;28;20042;-75
2023/10/17 11:06:04;;;;;;;15.20;4.82;;;;;;;20.40;58.87;101732.25;5112870;28;20167;-75
2023/10/17 11:08:35;;;;;;;16.73;4.80;;;;;;;21.36;58.46;101726.34;5111688;28;20412;-76
2023/10/17 11:11:01;;;;;;;13.98;4.57;;;;;;;21.98;57.70;101721.06;5112625;28;20028;-76
2023/10/17 11:13:34;;;;;;;18.80;5.78;;;;;;;22.33;55.46;101730.78;5112581;28;20069;-76
2023/10/17 11:16:00;;;;;;;11.85;4.30;;;;;;;22.05;52.06;101719.94;5112574;28;20110;-76
2023/10/17 11:18:25;;;;;;;27.98;14.65;;;;;;;22.47;53.61;101714.19;5112853;28;20134;-75
2023/10/17 11:20:57;;;;;;;13.68;4.60;;;;;;;22.59;53.30;101715.63;5112692;28;20654;-74
2023/10/17 11:23:32;;;;;;;;;;;;;;;23.52;54.46;101713.38;5114328;28;20046;-75
2023/10/17 11:26:02;;;;;;;12.63;4.20;;;;;;;23.04;49.25;101701.53;5116943;28;19968;-75
2023/10/17 11:28:27;;;;;;;13.10;4.30;;;;;;;23.22;49.57;101699.16;5116686;28;20043;-75
2023/10/17 11:30:53;;;;;;;11.88;3.95;;;;;;;23.53;48.89;101692.66;5116428;27;20036;-75
2023/10/17 11:33:28;;;;;;;13.48;3.90;;;;;;;23.62;48.66;101690.50;5116572;28;20497;-75
2023/10/17 11:35:54;;;;;;;12.63;3.88;;;;;;;24.12;47.73;101684.13;5115458;28;20034;-75
2023/10/17 11:38:37;;;;;;;11.98;4.00;;;;;;;24.58;46.56;101684.13;5116135;28;20024;-76
2023/10/17 11:41:07;;;;;;;13.00;3.80;;;;;;;24.30;45.40;101685.22;5112118;28;20055;-75
2023/10/17 11:43:42;;;;;;;11.18;4.03;;;;;;;23.70;45.63;101690.22;5114937;28;20078;-73
2023/10/17 11:46:14;;;;;;;13.88;4.10;;;;;;;24.39;45.58;101685.81;5113013;28;20450;-74
2023/10/17 11:48:45;;;;;;;;;;;;;;;24.82;46.22;101684.94;5116733;28;20027;-73
2023/10/17 11:51:18;;;;;;;10.35;3.80;;;;;;;23.12;46.03;101674.31;5114668;28;20345;-72
2023/10/17 11:54:08;;;;;;;12.85;3.90;;;;;;;23.47;48.69;101673.09;5116047;28;20028;-71
2023/10/17 11:56:36;;;;;;;12.27;3.72;;;;;;;23.27;45.94;101673.78;5112039;28;20027;-72
2023/10/17 11:59:03;;;;;;;13.68;4.05;;;;;;;22.96;45.67;101666.75;5116127;27;20034;-71
2023/10/17 12:01:34;;;;;;;11.25;3.90;;;;;;;22.85;46.91;101682.41;5116052;28;20027;-71
2023/10/17 12:04:05;;;;;;;11.55;3.97;;;;;;;23.12;46.55;101682.41;5115837;28;20486;-72
2023/10/17 12:06:31;;;;;;;12.48;3.92;;;;;;;24.02;44.49;101686.31;5115818;28;20032;-76
2023/10/17 12:08:56;;;;;;;11.57;3.80;;;;;;;23.92;45.38;101693.00;5115936;28;20385;-72
2023/10/17 12:11:24;;;;;;;10.93;4.03;;;;;;;24.08;44.88;101690.59;5115684;28;20031;-73
2023/10/17 12:13:51;;;;;;;12.50;4.10;;;;;;;23.42;45.45;101672.34;5114467;28;20519;-76
2023/10/17 12:16:17;;;;;;;13.32;4.18;;;;;;;23.21;44.65;101665.03;5115717;28;20480;-76
2023/10/17 12:18:43;;;;;;;11.05;3.83;;;;;;;22.97;45.66;101652.31;5115624;28;20035;-73
2023/10/17 12:21:14;;;;;;;11.68;4.03;;;;;;;23.17;46.76;101644.50;5115557;28;20479;-75
2023/10/17 12:23:40;;;;;;;11.93;4.10;;;;;;;22.94;48.01;101640.78;5115682;28;20028;-74
2023/10/17 12:26:08;;;;;;;11.50;3.97;;;;;;;22.89;45.08;101648.13;5114256;28;20035;-73
2023/10/17 12:28:41;;;;;;;11.75;3.85;;;;;;;22.86;44.99;101624.88;5112053;28;20035;-77
2023/10/17 12:31:07;;;;;;;11.30;3.85;;;;;;;23.17;45.35;101634.63;5115429;28;20460;-72
2023/10/17 12:33:32;;;;;;;12.25;4.05;;;;;;;23.40;43.75;101622.09;5115067;27;20030;-75
2023/10/17 12:35:59;;;;;;;11.57;3.75;;;;;;;23.80;45.30;101623.28;5115079;28;20594;-74
2023/10/17 12:38:25;;;;;;;10.02;3.90;;;;;;;24.33;44.58;101614.00;5115290;28;20027;-72
2023/10/17 12:40:52;;;;;;;10.15;3.83;;;;;;;25.18;44.31;101602.28;5114902;28;20525;-71
2023/10/17 12:43:19;;;;;;;11.65;3.72;;;;;;;25.40;42.06;101594.09;5115074;28;20486;-73
2023/10/17 12:45:48;;;;;;;11.93;4.03;;;;;;;25.10;40.93;101585.50;5115165;28;20073;-72
2023/10/17 12:48:14;;;;;;;13.65;3.65;;;;;;;24.66;42.07;101583.81;5115498;28;20043;-77
2023/10/17 12:50:46;;;;;;;10.63;3.88;;;;;;;23.65;42.36;101578.88;5114898;28;20462;-77
2023/10/17 12:53:12;;;;;;;12.07;4.00;;;;;;;22.82;44.17;101566.63;5113804;28;20038;-77
2023/10/17 12:55:39;;;;;;;8.63;3.75;;;;;;;22.92;43.80;101568.06;5115085;27;20023;-77
2023/10/17 12:58:10;;;;;;;11.15;3.85;;;;;;;23.47;45.33;101569.66;5109714;28;20036;-77
2023/10/17 13:00:41;;;;;;;13.85;3.67;;;;;;;24.42;43.67;101572.19;5109700;28;20027;-77
2023/10/17 13:03:07;;;;;;;11.40;3.80;;;;;;;24.24;43.01;101555.81;5111023;28;20035;-77
2023/10/17 13:05:32;;;;;;;11.00;3.60;;;;;;;24.39;41.95;101567.81;5114677;28;20024;-77
2023/10/17 13:07:57;;;;;;;9.85;3.70;;;;;;;23.82;42.79;101568.31;5114581;28;20462;-75
2023/10/17 13:10:23;;;;;;;11.77;3.65;;;;;;;23.84;43.72;101554.75;5113609;28;20480;-78
2023/10/17 13:12:48;;;;;;;10.98;3.63;;;;;;;23.20;42.89;101561.69;5114466;28;20114;-77
2023/10/17 13:15:17;;;;;;;13.02;3.95;;;;;;;22.94;44.17;101555.41;5114696;28;20034;-74
2023/10/17 13:17:44;;;;;;;11.52;3.70;;;;;;;22.85;45.37;101558.44;5114659;28;20037;-77
2023/10/17 13:20:14;;;;;;;11.25;4.10;;;;;;;23.01;44.00;101572.25;5114294;28;20385;-77
2023/10/17 13:22:46;;;;;;;13.38;4.00;;;;;;;22.89;44.57;101552.00;5113143;28;20596;-71
2023/10/17 13:25:12;;;;;;;12.57;4.07;;;;;;;22.67;45.85;101548.31;5114426;28;20028;-74